Malta Bend, MO

2:55 AM CDT on October 02, 2014 (GMT -0500)
Higginsville | Change Station
CLOSE
Current Station
Personal Weather Station
Location: Higginsville, MO
Elevation: 837 ft
Nearby Weather Stations
Active Advisory: Severe Thunderstorm Watch, Flood Warning Active Notice: Record Report

Elev 837 ft 39.08 °N, 93.72 °W | Updated 33 seconds ago

Overcast
Overcast
64.7 °F
Feels Like 64.7 °F
N
4.0
Wind Variable Wind from SSE
Gusts 7.0 mph

Today
High -- | Low -- °F
--% Chance of Precip.
Yesterday
High -- | Low -- °F
Precip. -- in
7:10 AM 6:54 PM
First Quarter, 56% visible
Pressure 29.77 in
Visibility 7.0 miles
Clouds Few 200 ft
Mostly Cloudy 1100 ft
Mostly Cloudy 9000 ft
Dew Point 64 °F
Humidity 97%
Rainfall 0.07 in
Snow Depth Not available.
UV 0.0 out of 12
Pollen 4.70 out of 12
Air Quality Not available.
Flu Activity Not available.
SPECI KSZL 020739Z 13009KT 7SM -TSRA FEW002 BKN011 BKN090 18/17 A2977 RMK AO2A LTG DSNT NW-E AND S-SW BKN011 V OVC PRESFR

More Conditions Fewer Conditions

Pressure 29.77 in
Visibility 7.0 miles
Clouds Few 200 ft
Mostly Cloudy 1100 ft
Mostly Cloudy 9000 ft
Dew Point 64 °F
Humidity 97%
Rainfall 0.07 in
Snow Depth Not available.
UV 0.0 out of 12
Pollen 4.70 out of 12
Air Quality Not available.
Flu Activity Not available.
SPECI KSZL 020739Z 13009KT 7SM -TSRA FEW002 BKN011 BKN090 18/17 A2977 RMK AO2A LTG DSNT NW-E AND S-SW BKN011 V OVC PRESFR

More Conditions Fewer Conditions

10-Day Weather Forecast

Almanac

Astronomy

Oct. 02, 2014 Rise Set
Actual Time 7:10 AM CDT 6:54 PM CDT
Civil Twilight 6:43 AM CDT 7:21 PM CDT
Nautical Twilight 6:12 AM CDT 7:52 PM CDT
Astronomical Twilight 5:41 AM CDT 8:23 PM CDT
Moon 2:59 PM CDT 12:30 AM CDT
Length of Visible Light 12h 37m
Length of Day
11h 43m
Tomorrow will be 2m 32s shorter.
First Quarter, 56% of the Moon is Illuminated
Today
First Quarter
Oct 8
Full
Oct 15
Last Quarter
Oct 23
New
Oct 30
First Quarter

Today's Extremes

State Highs State Lows

Community

WunderPhotos

Upload Photos

1,758,198 photos uploaded!

WunderBlogs® & News

By Dr. Jeff Masters
Director of Meteorology, Weather Underground
By Kari Strenfel
Meteorologist, Weather Underground
By Christopher C. Burt
Weather Historian, Weather Underground
October 2, 2014
October 2, 2014
October 2, 2014

Nearby

Snow Depth

Station Depth Elevation
No new snow has been reported.

Earthquake Activity

City Distance Mag. Time & Date
No recent earthquake activity has been reported nearby.
Minimum magnitude displayed is 2.5.

Coastal Water Temperatures

Place Temperature
No Stations Reporting

Nearby Weather Stations